Thunder radar more information blitzortung!


Radar de pluja more information rain snow radar


Visita la nostra xarxa de llocs de meteo:

Template documentation
and downloads

And another site



No particular awareness of the weather is required.    There are no Weather-warnings

Pagina Historial Weather Underground text

Diari Resum Setembre 13, 2017 Unitats:  Mètric    Imperial   Tant
« Previous Dia
SegĂźent Dia »
Diari Setmana Mensual Anual Personalitzada
  Maxima: Minima: Media:
Temperatura: -17.8 °C -9 °C -4.7 °C
Punt de rosada: -17.8 °C -11.2 °C -10.1 °C
Humitat: Humidity % 36 % 57 %
Wind Speed: 0 km/h 0 km/h 15.4 km/h
RĂ fegues de vent: 0 km/h - -
Vent:- - SW
Pression baro: 0 hPa 34462.7 hPa -
Precipitacions: 0 mm    
Historical Graphs
 
 
Dades de taula per Setembre 13, 2017
Temps Temperatura Punt de rosada Pression baro Vent Wind Speed RĂ fegues de vent Humitat Rainfall Rate (Hourly)
-17.8 °C -17.8 °C 0 hPa Calm     Humidity % 0 mm
00:00 -8.5 °C -10.1 °C 34533.8 hPa Calm   2.6 km/h 83 % 0 mm
00:01 -7.5 °C -10 °C 34533.8 hPa Calm     75 % 0 mm
00:10 -8.6 °C -10.2 °C 34533.8 hPa Calm     83 % 0 mm
00:20 -8.7 °C -10.3 °C 34533.8 hPa SSE 2.6 km/h 2.6 km/h 83 % 0 mm
00:30 -8.8 °C -10.4 °C 34533.8 hPa Calm   2.6 km/h 83 % 0 mm
00:40 -8.8 °C -10.3 °C 34533.8 hPa Calm     84 % 0 mm
00:50 -8.9 °C -10.4 °C 34533.8 hPa Calm     84 % 0 mm
01:00 -8.9 °C -10.4 °C 34533.8 hPa SW 2.6 km/h 2.6 km/h 84 % 0 mm
01:10 -8.9 °C -10.4 °C 34533.8 hPa Calm   2.6 km/h 84 % 0 mm
01:20 -8.9 °C -10.3 °C 34533.8 hPa Calm     85 % 0 mm
01:30 -8.9 °C -10.3 °C 34533.8 hPa Calm     85 % 0 mm
01:40 -9 °C -10.4 °C 34533.8 hPa Calm     85 % 0 mm
01:50 -9 °C -10.4 °C 34533.8 hPa Calm     85 % 0 mm
02:00 -8.9 °C -10.3 °C 34533.8 hPa Calm   5.1 km/h 85 % 0 mm
02:10 -8.9 °C -10.3 °C 34533.8 hPa Calm   5.1 km/h 85 % 0 mm
02:20 -8.8 °C -10.2 °C 34533.8 hPa WSW 2.6 km/h 5.1 km/h 85 % 0 mm
02:30 -8.8 °C -10.2 °C 34496.6 hPa SW 5.1 km/h 7.7 km/h 85 % 0 mm
02:40 -8.8 °C -10.2 °C 34533.8 hPa SW 5.1 km/h 5.1 km/h 85 % 0 mm
02:50 -8.8 °C -10.2 °C 34533.8 hPa SW 2.6 km/h 7.7 km/h 85 % 0 mm
03:00 -8.9 °C -10.2 °C 34533.8 hPa SW 2.6 km/h 5.1 km/h 86 % 0 mm
03:10 -8.8 °C -10.1 °C 34533.8 hPa Calm   2.6 km/h 86 % 0 mm
03:20 -8.8 °C -10.1 °C 34533.8 hPa Calm   2.6 km/h 86 % 0 mm
03:30 -8.7 °C -9.9 °C 34567.7 hPa Calm     86 % 0 mm
03:40 -8.3 °C -9.6 °C 34567.7 hPa NNW 2.6 km/h 5.1 km/h 86 % 0 mm
03:50 -8.1 °C -9.7 °C 34567.7 hPa NNW 5.1 km/h 7.7 km/h 83 % 0 mm
04:00 -7.7 °C -9.6 °C 34567.7 hPa NNW 2.6 km/h 7.7 km/h 81 % 0 mm
04:10 -7.6 °C -9.7 °C 34567.7 hPa Calm   5.1 km/h 79 % 0 mm
04:20 -7.6 °C -9.7 °C 34567.7 hPa WSW 2.6 km/h 5.1 km/h 78 % 0 mm
04:30 -7.4 °C -9.6 °C 34567.7 hPa SW 5.1 km/h 7.7 km/h 78 % 0 mm
04:40 -7.4 °C -9.6 °C 34601.5 hPa SW 5.1 km/h 7.7 km/h 78 % 0 mm
04:50 -7.3 °C -9.4 °C 34601.5 hPa WSW 2.6 km/h 7.7 km/h 78 % 0 mm
05:00 -6.9 °C -9.3 °C 34601.5 hPa WSW 2.6 km/h 5.1 km/h 76 % 0 mm
05:10 -6.5 °C -9.2 °C 34601.5 hPa West 5.1 km/h 5.1 km/h 74 % 0 mm
05:20 -6 °C -8.9 °C 34601.5 hPa Calm   7.7 km/h 72 % 0 mm
10:22 -5.9 °C -9.2 °C 34601.5 hPa North 6 km/h 6 km/h 69 % 0 mm
10:23 -5.8 °C -9.1 °C 34601.5 hPa North 4.2 km/h 4.2 km/h 69 % 0 mm
10:24 -5.7 °C -9 °C 34601.5 hPa NW 3.1 km/h 3.7 km/h 69 % 0 mm
10:29 -5.6 °C -9.2 °C 34601.5 hPa NNE 6.8 km/h 6.8 km/h 67 % 0 mm
10:34 -5.4 °C -9.5 °C 34601.5 hPa NNE 9 km/h 9 km/h 63 % 0 mm
10:39 -5.4 °C -9.5 °C 34601.5 hPa WSW 6.3 km/h 6.3 km/h 63 % 0 mm
10:44 -5.3 °C -9.6 °C 34601.5 hPa SW 6 km/h 6 km/h 62 % 0 mm
10:49 -5 °C -9.6 °C 34601.5 hPa NE 6 km/h 6 km/h 60 % 0 mm
10:54 -4.8 °C -9.7 °C 34601.5 hPa South 9.3 km/h 9.3 km/h 58 % 0 mm
10:59 -4.7 °C -9.6 °C 34601.5 hPa NE 9 km/h 9 km/h 58 % 0 mm
11:04 -4.6 °C -9.5 °C 34601.5 hPa NNW 3.7 km/h 3.7 km/h 58 % 0 mm
11:09 -4.6 °C -9.9 °C 34601.5 hPa East 11.9 km/h 11.9 km/h 55 % 0 mm
11:14 -4.6 °C -9.9 °C 34601.5 hPa North 11.9 km/h 11.9 km/h 55 % 0 mm
11:19 -4.6 °C -9.9 °C 34601.5 hPa ENE 9.8 km/h 9.8 km/h 55 % 0 mm
11:24 -4.7 °C -10.3 °C 34601.5 hPa ESE 9.8 km/h 9.8 km/h 53 % 0 mm
11:29 -4.5 °C -10.2 °C 34601.5 hPa WNW 6 km/h 6 km/h 53 % 0 mm
11:34 -4.2 °C -9.8 °C 34601.5 hPa ESE 9 km/h 9 km/h 53 % 0 mm
11:39 -4.1 °C -9.9 °C 34601.5 hPa East 6 km/h 6.3 km/h 52 % 0 mm
11:44 -3.9 °C -9.8 °C 34601.5 hPa WSW 10.3 km/h 10.3 km/h 52 % 0 mm
11:49 -3.8 °C -10.1 °C 34601.5 hPa SW 6 km/h 6 km/h 50 % 0 mm
11:54 -3.9 °C -9.9 °C 34601.5 hPa West 17.9 km/h 17.9 km/h 51 % 0 mm
11:59 -3.8 °C -10.3 °C 34601.5 hPa East 15.3 km/h 15.3 km/h 48 % 0 mm
12:04 -4 °C -10.4 °C 34601.5 hPa South 6 km/h 6 km/h 49 % 0 mm
12:09 -3.6 °C -10.3 °C 34601.5 hPa WSW 6.3 km/h 6.3 km/h 47 % 0 mm
12:14 -3.5 °C -10.2 °C 34601.5 hPa South 9.8 km/h 9.8 km/h 47 % 0 mm
12:19 -3.4 °C -10.2 °C 34601.5 hPa SW 20.9 km/h 20.9 km/h 47 % 0 mm
12:24 -3.5 °C -10.2 °C 34601.5 hPa ENE 6 km/h 6 km/h 47 % 0 mm
12:29 -3.1 °C -10.1 °C 34601.5 hPa West 6 km/h 6 km/h 46 % 0 mm
12:34 -2.9 °C -9.7 °C 34601.5 hPa WSW 15.3 km/h 15.3 km/h 47 % 0 mm
12:39 -2.7 °C -9.9 °C 34601.5 hPa WSW 17.9 km/h 17.9 km/h 45 % 0 mm
12:44 -2.8 °C -10.1 °C 34601.5 hPa SSE 17.9 km/h 17.9 km/h 45 % 0 mm
12:49 -2.9 °C -10.3 °C 34601.5 hPa SSE 20.9 km/h 20.9 km/h 44 % 0 mm
12:54 -2.9 °C -10.1 °C 34601.5 hPa SW 15 km/h 15 km/h 45 % 0 mm
12:59 -2.7 °C -10.1 °C 34601.5 hPa SW 11.9 km/h 11.9 km/h 44 % 0 mm
13:04 -2.7 °C -10.3 °C 34601.5 hPa West 17.9 km/h 17.9 km/h 43 % 0 mm
13:09 -2.5 °C -10.3 °C 34601.5 hPa SSW 11.9 km/h 11.9 km/h 42 % 0 mm
13:14 -2.3 °C -9.9 °C 34601.5 hPa West 15 km/h 15 km/h 43 % 0 mm
13:19 -2.2 °C -9.8 °C 34601.5 hPa West 15 km/h 15 km/h 43 % 0 mm
13:24 -2.3 °C -10.1 °C 34567.7 hPa WSW 9 km/h 9 km/h 42 % 0 mm
13:34 -2.1 °C -10.1 °C 34567.7 hPa West 5.1 km/h 5.1 km/h 41 % 0 mm
13:39 -1.8 °C -10.1 °C 34567.7 hPa WSW 15.6 km/h 15.6 km/h 40 % 0 mm
13:44 -1.9 °C -9.9 °C 34567.7 hPa WSW 10.3 km/h 10.3 km/h 41 % 0 mm
13:49 -1.7 °C -10.2 °C 34567.7 hPa SSW 9 km/h 9 km/h 39 % 0 mm
13:54 -1.7 °C -10.4 °C 34567.7 hPa West 15 km/h 15 km/h 38 % 0 mm
13:59 -1.6 °C -10.3 °C 34567.7 hPa SW 17.9 km/h 17.9 km/h 38 % 0 mm
14:04 -1.6 °C -10.4 °C 34567.7 hPa West 26.9 km/h 26.9 km/h 38 % 0 mm
14:09 -1.7 °C -10.4 °C 34567.7 hPa SSW 26.9 km/h 26.9 km/h 38 % 0 mm
14:14 -1.6 °C -10.6 °C 34567.7 hPa SW 14 km/h 14 km/h 37 % 0 mm
14:19 -1.8 °C -10.6 °C 34567.7 hPa SSW 17.9 km/h 17.9 km/h 38 % 0 mm
14:24 -1.8 °C -10.8 °C 34533.8 hPa SW 17.9 km/h 17.9 km/h 37 % 0 mm
14:29 -1.6 °C -10.6 °C 34533.8 hPa SW 25.4 km/h 25.4 km/h 37 % 0 mm
14:34 -1.8 °C -10.7 °C 34533.8 hPa SW 15 km/h 15 km/h 37 % 0 mm
14:39 -2 °C -11.2 °C 34533.8 hPa SW 29.8 km/h 29.8 km/h 36 % 0 mm
14:44 -1.9 °C -11.1 °C 34533.8 hPa South 20.9 km/h 20.9 km/h 36 % 0 mm
14:49 -1.9 °C -10.8 °C 34533.8 hPa WSW 19.2 km/h 19.2 km/h 37 % 0 mm
14:54 -2 °C -11.2 °C 34533.8 hPa South 15.6 km/h 15.6 km/h 36 % 0 mm
14:59 -1.9 °C -11.1 °C 34533.8 hPa SW 26.9 km/h 26.9 km/h 36 % 0 mm
15:04 -2 °C -11.2 °C 34533.8 hPa SW 32.8 km/h 32.8 km/h 36 % 0 mm
15:09 -1.8 °C -10.8 °C 34496.6 hPa WSW 16.6 km/h 16.6 km/h 37 % 0 mm
15:14 -1.8 °C -10.7 °C 34496.6 hPa SSE 9 km/h 9 km/h 37 % 0 mm
15:19 -1.9 °C -10.8 °C 34496.6 hPa WSW 23.8 km/h 23.8 km/h 37 % 0 mm
15:24 -1.8 °C -10.7 °C 34533.8 hPa South 23.8 km/h 23.8 km/h 37 % 0 mm
15:29 -1.8 °C -10.8 °C 34533.8 hPa SSE 17.9 km/h 17.9 km/h 37 % 0 mm
15:34 -1.7 °C -10.7 °C 34533.8 hPa SSW 17.9 km/h 17.9 km/h 37 % 0 mm
15:39 -1.8 °C -10.6 °C 34533.8 hPa SW 32.8 km/h 32.8 km/h 38 % 0 mm
15:44 -1.8 °C -10.6 °C 34533.8 hPa SW 35.7 km/h 35.7 km/h 38 % 0 mm
15:49 -1.9 °C -10.6 °C 34533.8 hPa South 23.8 km/h 23.8 km/h 38 % 0 mm
15:54 -2 °C -10.5 °C 34533.8 hPa SW 20.9 km/h 20.9 km/h 39 % 0 mm
15:59 -1.9 °C -10.7 °C 34533.8 hPa SSE 23.8 km/h 23.8 km/h 38 % 0 mm
16:04 -2 °C -10.5 °C 34533.8 hPa SSW 20.9 km/h 20.9 km/h 39 % 0 mm
16:09 -2.1 °C -10.8 °C 34533.8 hPa WSW 20.9 km/h 20.9 km/h 38 % 0 mm
16:14 -2.1 °C -10.8 °C 34533.8 hPa SSW 26.9 km/h 26.9 km/h 38 % 0 mm
16:19 -2.1 °C -10.6 °C 34533.8 hPa South 23.8 km/h 23.8 km/h 39 % 0 mm
16:24 -2 °C -10.5 °C 34496.6 hPa SW 18.3 km/h 18.3 km/h 39 % 0 mm
16:29 -2 °C -10.5 °C 34496.6 hPa WSW 23.8 km/h 23.8 km/h 39 % 0 mm
16:34 -2.1 °C -10.4 °C 34496.6 hPa SSW 23.8 km/h 23.8 km/h 40 % 0 mm
16:39 -2.1 °C -10.4 °C 34496.6 hPa SW 11.9 km/h 11.9 km/h 40 % 0 mm
16:44 -1.8 °C -10.1 °C 34496.6 hPa SW 17.9 km/h 17.9 km/h 40 % 0 mm
16:49 -2.1 °C -10.2 °C 34496.6 hPa South 17.9 km/h 17.9 km/h 41 % 0 mm
16:54 -2.3 °C -10.3 °C 34496.6 hPa SW 29.8 km/h 29.8 km/h 41 % 0 mm
16:59 -2.3 °C -10.3 °C 34496.6 hPa SW 22 km/h 22 km/h 41 % 0 mm
17:04 -2.3 °C -10.3 °C 34496.6 hPa SW 26.9 km/h 26.9 km/h 41 % 0 mm
17:09 -2.3 °C -10.1 °C 34496.6 hPa WSW 38.8 km/h 38.8 km/h 42 % 0 mm
17:14 -2.4 °C -10.2 °C 34496.6 hPa WSW 20.9 km/h 20.9 km/h 42 % 0 mm
17:19 -2.4 °C -10.2 °C 34496.6 hPa South 23.8 km/h 23.8 km/h 42 % 0 mm
17:24 -2.4 °C -10.2 °C 34462.7 hPa SW 26.9 km/h 26.9 km/h 42 % 0 mm
17:29 -2.7 °C -10.4 °C 34462.7 hPa SSW 32.8 km/h 32.8 km/h 42 % 0 mm
17:34 -2.7 °C -10.2 °C 34462.7 hPa WSW 29.8 km/h 29.8 km/h 43 % 0 mm
17:39 -2.7 °C -10.2 °C 34462.7 hPa South 29.8 km/h 29.8 km/h 43 % 0 mm
17:44 -2.7 °C -10.2 °C 34462.7 hPa SW 35.7 km/h 35.7 km/h 43 % 0 mm
17:49 -2.8 °C -10.4 °C 34462.7 hPa SSW 38.8 km/h 38.8 km/h 43 % 0 mm
17:54 -2.9 °C -10.4 °C 34462.7 hPa SW 26.9 km/h 26.9 km/h 43 % 0 mm
17:59 -2.9 °C -10.5 °C 34462.7 hPa SSE 23.8 km/h 23.8 km/h 43 % 0 mm
18:04 -3.1 °C -10.6 °C 34462.7 hPa South 33.6 km/h 33.6 km/h 43 % 0 mm
18:09 -3 °C -10.6 °C 34462.7 hPa SW 35.7 km/h 35.7 km/h 43 % 0 mm
18:14 -3.1 °C -10.9 °C 34462.7 hPa SW 26.9 km/h 26.9 km/h 42 % 0 mm
18:19 -3.1 °C -10.9 °C 34462.7 hPa SSW 20.9 km/h 20.9 km/h 42 % 0 mm
18:24 -3.3 °C -10.8 °C 34462.7 hPa WSW 29.8 km/h 29.8 km/h 43 % 0 mm
18:29 -3.3 °C -10.9 °C 34462.7 hPa SW 26.9 km/h 26.9 km/h 43 % 0 mm
18:34 -3.4 °C -10.9 °C 34462.7 hPa South 29.8 km/h 29.8 km/h 43 % 0 mm
18:39 -3.4 °C -10.9 °C 34462.7 hPa West 22.5 km/h 22.5 km/h 43 % 0 mm
18:44 -3.4 °C -10.9 °C 34462.7 hPa SSW 26.9 km/h 26.9 km/h 43 % 0 mm
18:49 -3.5 °C -10.8 °C 34462.7 hPa SW 23.8 km/h 23.8 km/h 44 % 0 mm
18:54 -3.6 °C -10.9 °C 34462.7 hPa WSW 20.9 km/h 20.9 km/h 44 % 0 mm
18:59 -3.7 °C -10.8 °C 34462.7 hPa SW 29.8 km/h 29.8 km/h 45 % 0 mm
19:04 -3.8 °C -10.7 °C 34462.7 hPa WSW 44.7 km/h 44.7 km/h 46 % 0 mm
19:09 -3.9 °C -10.5 °C 34462.7 hPa SW 29.8 km/h 29.8 km/h 48 % 0 mm
19:14 -4.1 °C -10.4 °C 34462.7 hPa SW 15.3 km/h 20.9 km/h 49 % 0 mm
19:19 -4.2 °C -10.5 °C 34462.7 hPa SW 26.9 km/h 26.9 km/h 49 % 0 mm
19:24 -4.2 °C -10.3 °C 34462.7 hPa WSW 23.8 km/h 23.8 km/h 50 % 0 mm
19:29 -4.3 °C -10.2 °C 34462.7 hPa WSW 32.8 km/h 32.8 km/h 52 % 0 mm
19:34 -4.4 °C -10.1 °C 34462.7 hPa SSE 29.8 km/h 29.8 km/h 53 % 0 mm
19:39 -4.5 °C -10 °C 34462.7 hPa SW 32.8 km/h 32.8 km/h 54 % 0 mm
19:44 -4.6 °C -9.9 °C 34462.7 hPa West 29.8 km/h 29.8 km/h 55 % 0 mm
19:49 -4.7 °C -9.9 °C 34462.7 hPa WSW 35.7 km/h 35.7 km/h 55 % 0 mm
19:54 -4.7 °C -10.1 °C 34462.7 hPa SW 20.9 km/h 20.9 km/h 55 % 0 mm
19:59 -4.9 °C -9.7 °C 34462.7 hPa SW 32.8 km/h 32.8 km/h 58 % 0 mm
20:04 -4.9 °C -9.8 °C 34462.7 hPa WSW 20.9 km/h 20.9 km/h 58 % 0 mm
20:09 -5 °C -9.8 °C 34462.7 hPa SW 17.9 km/h 17.9 km/h 58 % 0 mm
20:14 -5.1 °C -9.8 °C 34462.7 hPa SSW 26.9 km/h 26.9 km/h 59 % 0 mm
20:19 -5.1 °C -9.8 °C 34462.7 hPa SSW 23.8 km/h 23.8 km/h 59 % 0 mm
20:24 -5.2 °C -9.8 °C 34462.7 hPa SSW 26.9 km/h 26.9 km/h 59 % 0 mm
20:29 -5.2 °C -9.9 °C 34462.7 hPa SW 15.6 km/h 16.1 km/h 59 % 0 mm
20:34 -5.3 °C -9.8 °C 34462.7 hPa SW 17.9 km/h 17.9 km/h 60 % 0 mm
20:39 -5.3 °C -9.8 °C 34462.7 hPa WSW 23.8 km/h 23.8 km/h 60 % 0 mm
20:44 -5.3 °C -9.7 °C 34462.7 hPa WSW 20.9 km/h 20.9 km/h 61 % 0 mm
20:49 -5.4 °C -9.8 °C 34462.7 hPa WSW 23.8 km/h 23.8 km/h 61 % 0 mm
20:54 -5.4 °C -9.8 °C 34496.6 hPa SSW 17.9 km/h 17.9 km/h 61 % 0 mm
20:59 -5.5 °C -9.7 °C 34496.6 hPa SW 26.9 km/h 26.9 km/h 62 % 0 mm
21:04 -5.5 °C -9.7 °C 34496.6 hPa SW 23.8 km/h 23.8 km/h 62 % 0 mm
21:09 -5.6 °C -9.8 °C 34496.6 hPa SW 15 km/h 15 km/h 62 % 0 mm
21:14 -5.6 °C -9.7 °C 34496.6 hPa SW 22.5 km/h 22.5 km/h 63 % 0 mm
21:19 -5.7 °C -9.6 °C 34496.6 hPa SW 15 km/h 15 km/h 64 % 0 mm
21:24 -5.7 °C -9.5 °C 34496.6 hPa SW 26.9 km/h 26.9 km/h 65 % 0 mm
21:29 -5.7 °C -9.6 °C 34496.6 hPa SW 15 km/h 15 km/h 65 % 0 mm
21:34 -5.7 °C -9.4 °C 34496.6 hPa SW 9.8 km/h 9.8 km/h 66 % 0 mm
21:39 -5.8 °C -9.4 °C 34496.6 hPa SW 11.9 km/h 11.9 km/h 66 % 0 mm
21:44 -5.8 °C -9.5 °C 34496.6 hPa SW 11.9 km/h 11.9 km/h 66 % 0 mm
21:49 -5.8 °C -9.4 °C 34496.6 hPa SSW 17.9 km/h 17.9 km/h 67 % 0 mm
21:54 -5.9 °C -9.3 °C 34496.6 hPa SW 17.9 km/h 17.9 km/h 68 % 0 mm
21:59 -5.9 °C -9.2 °C 34496.6 hPa SW 11.9 km/h 11.9 km/h 69 % 0 mm
22:04 -5.9 °C -9.2 °C 34496.6 hPa SSW 15 km/h 15 km/h 69 % 0 mm
22:09 -5.9 °C -9.1 °C 34496.6 hPa SSW 15 km/h 15 km/h 70 % 0 mm
22:14 -6 °C -9.1 °C 34496.6 hPa SW 11.9 km/h 11.9 km/h 71 % 0 mm
22:19 -5.9 °C -9 °C 34496.6 hPa WSW 15 km/h 15 km/h 71 % 0 mm
22:24 -6 °C -8.9 °C 34496.6 hPa WSW 11.9 km/h 11.9 km/h 72 % 0 mm
22:29 -6 °C -8.9 °C 34496.6 hPa SW 11.9 km/h 11.9 km/h 72 % 0 mm
22:34 -6.1 °C -9 °C 34496.6 hPa SSW 11.9 km/h 11.9 km/h 72 % 0 mm
22:39 -6.1 °C -9 °C 34496.6 hPa SW 11.9 km/h 11.9 km/h 72 % 0 mm
22:44 -6.1 °C -8.8 °C 34496.6 hPa WSW 9.3 km/h 9.3 km/h 73 % 0 mm
22:49 -6.1 °C -8.8 °C 34496.6 hPa West 15 km/h 15 km/h 73 % 0 mm
22:54 -6.1 °C -8.9 °C 34496.6 hPa WSW 9.3 km/h 9.3 km/h 73 % 0 mm
22:59 -6.1 °C -8.9 °C 34496.6 hPa SW 9 km/h 9 km/h 73 % 0 mm
23:04 -6.1 °C -8.8 °C 34496.6 hPa West 6 km/h 6 km/h 74 % 0 mm
23:09 -6.1 °C -8.8 °C 34496.6 hPa WSW 10.3 km/h 10.3 km/h 74 % 0 mm
23:14 -6.1 °C -8.8 °C 34496.6 hPa WSW 6 km/h 6 km/h 74 % 0 mm
23:19 -6.2 °C -8.8 °C 34496.6 hPa WSW 8.5 km/h 8.5 km/h 74 % 0 mm
23:24 -6.2 °C -8.8 °C 34496.6 hPa West 9 km/h 9 km/h 74 % 0 mm
23:29 -6.2 °C -8.8 °C 34496.6 hPa SW 6 km/h 6 km/h 75 % 0 mm
23:34 -6.2 °C -8.8 °C 34496.6 hPa WSW 11.9 km/h 11.9 km/h 75 % 0 mm
23:39 -6.3 °C -8.7 °C 34496.6 hPa SSW 6.3 km/h 6.3 km/h 76 % 0 mm
23:44 -6.3 °C -8.7 °C 34496.6 hPa West 11.9 km/h 11.9 km/h 76 % 0 mm
23:49 -6.3 °C -8.7 °C 34496.6 hPa WSW 8 km/h 8 km/h 77 % 0 mm
23:54 -6.3 °C -8.8 °C 34462.7 hPa WSW 6 km/h 6 km/h 76 % 0 mm
23:59 -6.3 °C -8.7 °C 34462.7 hPa WSW 9 km/h 9 km/h 77 % 0 mm
Meteo Sesrovires
Elogis d' Weather Underground - 3.5 mb

Guio original per  Jim McMurry - jmcmurry@mwt.net Adaptat per a la plantilla per  Wim van der Kuil - Leuven-Template.eu

Trobareu la nostra informacio del temps tambe a:

Weather Underground

AWEKAS